Time;durP1;ratioP1;P1;durP2;ratioP2;P2;SDS_P1;SDS_P2;PMS_P1;PMS_P2;Temp;Humidity;BMP_temperature;BMP_pressure;BME280_temperature;BME280_humidity;BME280_pressure;Samples;Min_cycle;Max_cycle;Signal;HPM_P1;HPM_P2
2021/09/23 00:00:10;;;;;;;27.13;17.77;;;9.40;99.90;;;;;;4972475;28;20065;-55
2021/09/23 00:05:15;;;;;;;23.48;14.65;;;9.40;99.90;;;;;;4974046;28;20502;-59
2021/09/23 00:07:41;;;;;;;25.83;15.57;;;9.40;99.90;;;;;;4968339;28;20393;-59
2021/09/23 00:10:10;;;;;;;20.98;14.18;;;9.30;99.90;;;;;;4971909;28;20117;-57
2021/09/23 00:12:36;;;;;;;22.33;14.43;;;9.30;99.90;;;;;;4952881;28;20081;-53
2021/09/23 00:15:04;;;;;;;30.98;18.58;;;9.20;99.90;;;;;;4972971;28;20494;-56
2021/09/23 00:17:30;;;;;;;34.40;19.95;;;9.20;99.90;;;;;;4956454;28;20033;-59
2021/09/23 00:19:56;;;;;;;29.02;18.88;;;9.30;99.90;;;;;;4973629;28;20027;-58
2021/09/23 00:22:21;;;;;;;36.28;20.23;;;9.40;99.90;;;;;;4972832;28;20023;-58
2021/09/23 00:24:47;;;;;;;31.95;18.52;;;9.40;99.90;;;;;;4969187;28;20027;-51
2021/09/23 00:27:13;;;;;;;30.83;19.20;;;9.50;99.90;;;;;;4967317;28;20035;-59
2021/09/23 00:29:38;;;;;;;29.27;18.55;;;9.50;99.90;;;;;;4970820;28;20102;-55
2021/09/23 00:32:04;;;;;;;29.77;18.65;;;9.50;99.90;;;;;;4975806;28;20139;-59
2021/09/23 00:34:29;;;;;;;29.23;18.05;;;9.50;99.90;;;;;;4972951;28;20086;-55
2021/09/23 00:36:56;;;;;;;27.17;17.40;;;9.50;99.90;;;;;;4974677;28;20054;-57
2021/09/23 00:39:23;;;;;;;24.73;15.45;;;9.40;99.90;;;;;;4973926;28;20023;-56
2021/09/23 00:41:50;;;;;;;35.30;19.40;;;9.40;99.90;;;;;;4971165;28;20029;-56
2021/09/23 00:44:21;;;;;;;26.90;17.23;;;9.40;99.90;;;;;;4971781;28;20398;-57
2021/09/23 00:46:48;;;;;;;23.83;16.02;;;9.30;99.90;;;;;;4971277;28;20035;-49
2021/09/23 00:49:15;;;;;;;24.75;15.98;;;9.30;99.90;;;;;;4969569;28;20445;-58
2021/09/23 00:51:42;;;;;;;25.08;16.13;;;9.20;99.90;;;;;;4980403;28;20029;-59
2021/09/23 00:54:08;;;;;;;31.92;17.30;;;9.20;99.90;;;;;;4979840;28;20721;-58
2021/09/23 00:56:34;;;;;;;28.80;17.27;;;9.20;99.90;;;;;;4975472;28;20049;-60
2021/09/23 00:59:00;;;;;;;29.85;18.00;;;9.10;99.90;;;;;;4977164;28;20105;-56
2021/09/23 01:01:25;;;;;;;27.13;17.70;;;9.10;99.90;;;;;;4973997;28;20074;-53
2021/09/23 01:03:53;;;;;;;30.13;17.45;;;9.20;99.90;;;;;;4974918;28;20406;-57
2021/09/23 01:06:19;;;;;;;27.80;18.17;;;9.20;99.90;;;;;;4974860;28;20023;-54
2021/09/23 01:08:55;;;;;;;28.35;17.42;;;9.20;99.90;;;;;;4967046;28;20039;-51
2021/09/23 01:11:23;;;;;;;31.70;18.35;;;9.20;99.90;;;;;;4966745;28;20035;-57
2021/09/23 01:13:48;;;;;;;32.88;18.80;;;9.20;99.90;;;;;;4973744;28;20534;-58
2021/09/23 01:16:14;;;;;;;32.38;18.80;;;9.20;99.90;;;;;;4972828;28;20054;-57
2021/09/23 01:18:40;;;;;;;30.10;19.65;;;9.20;99.90;;;;;;4973750;28;20807;-56
2021/09/23 01:21:07;;;;;;;29.00;18.48;;;9.30;99.90;;;;;;4971569;28;20026;-53
2021/09/23 01:23:43;;;;;;;29.27;18.02;;;9.30;99.90;;;;;;4971358;28;20081;-56
2021/09/23 01:26:16;;;;;;;28.73;17.45;;;9.30;99.90;;;;;;4971632;28;20078;-56
2021/09/23 01:28:42;;;;;;;27.73;18.13;;;9.30;99.90;;;;;;4968398;28;20483;-56
2021/09/23 01:31:08;;;;;;;28.77;17.15;;;9.20;99.90;;;;;;4971332;28;20034;-56
2021/09/23 01:33:35;;;;;;;30.40;17.48;;;9.10;99.90;;;;;;4974891;28;20104;-55
2021/09/23 01:36:00;;;;;;;32.38;19.73;;;9.10;99.90;;;;;;4971663;28;20150;-58
2021/09/23 01:38:27;;;;;;;29.33;19.17;;;9.00;99.90;;;;;;4971931;28;20153;-57
2021/09/23 01:40:54;;;;;;;32.58;19.67;;;9.00;99.90;;;;;;4971082;28;20058;-58
2021/09/23 01:43:20;;;;;;;28.42;18.70;;;9.10;99.90;;;;;;4970556;28;20042;-54
2021/09/23 01:45:46;;;;;;;31.15;19.50;;;9.10;99.90;;;;;;4970983;28;20034;-58
2021/09/23 01:48:12;;;;;;;39.45;19.52;;;9.10;99.90;;;;;;4970796;28;20034;-55
2021/09/23 01:50:39;;;;;;;25.90;17.35;;;9.10;99.90;;;;;;4971171;28;20039;-57
2021/09/23 01:53:05;;;;;;;28.33;18.13;;;9.00;99.90;;;;;;4971438;28;20034;-55
2021/09/23 01:55:30;;;;;;;28.38;18.45;;;9.00;99.90;;;;;;4969200;28;20035;-53
2021/09/23 01:57:56;;;;;;;27.92;16.58;;;9.00;99.90;;;;;;4970923;28;20121;-55
2021/09/23 02:00:21;;;;;;;22.42;15.60;;;9.00;99.90;;;;;;4971786;28;20420;-55
2021/09/23 02:02:48;;;;;;;31.80;17.33;;;8.90;99.90;;;;;;4976381;28;20112;-58
2021/09/23 02:05:14;;;;;;;26.80;16.27;;;8.80;99.90;;;;;;4971379;28;20018;-58
2021/09/23 02:07:40;;;;;;;22.60;15.43;;;8.70;99.90;;;;;;4969959;28;20039;-54
2021/09/23 02:10:05;;;;;;;30.80;17.77;;;8.70;99.90;;;;;;4971702;28;20360;-58
2021/09/23 02:12:31;;;;;;;29.73;15.30;;;8.60;99.90;;;;;;4970465;28;20043;-56
2021/09/23 02:14:58;;;;;;;36.85;17.90;;;8.60;99.90;;;;;;4971193;28;20039;-50
2021/09/23 02:17:24;;;;;;;24.50;16.05;;;8.50;99.90;;;;;;4970516;28;20026;-53
2021/09/23 02:19:49;;;;;;;24.02;15.82;;;8.50;99.90;;;;;;4978618;28;20050;-55
2021/09/23 02:22:15;;;;;;;29.83;18.13;;;8.50;99.90;;;;;;4976680;28;20026;-56
2021/09/23 02:24:41;;;;;;;30.27;17.98;;;8.50;99.90;;;;;;4977121;28;20062;-57
2021/09/23 02:27:07;;;;;;;30.83;17.83;;;8.50;99.90;;;;;;4976687;28;20073;-53
2021/09/23 02:29:34;;;;;;;28.52;17.90;;;8.50;99.90;;;;;;4982409;28;20829;-54
2021/09/23 02:32:01;;;;;;;28.30;16.65;;;8.50;99.90;;;;;;4979737;28;20027;-59
2021/09/23 02:34:27;;;;;;;34.10;18.88;;;8.50;99.90;;;;;;4962034;28;20042;-58
2021/09/23 02:36:52;;;;;;;31.25;16.60;;;8.50;99.90;;;;;;4964041;28;20023;-57
2021/09/23 02:39:18;;;;;;;25.00;16.02;;;8.50;99.90;;;;;;4978418;28;20054;-58
2021/09/23 02:41:43;;;;;;;24.50;16.58;;;8.50;99.90;;;;;;4977415;28;20031;-58
2021/09/23 02:44:09;;;;;;;25.08;16.58;;;8.50;99.90;;;;;;4976358;28;20081;-57
2021/09/23 02:46:34;;;;;;;31.02;18.73;;;8.50;99.90;;;;;;4976902;28;20100;-54
2021/09/23 02:49:00;;;;;;;30.40;18.73;;;8.50;99.90;;;;;;4977019;28;20042;-53
2021/09/23 02:51:26;;;;;;;27.67;17.60;;;8.50;99.90;;;;;;4978669;28;20114;-56
2021/09/23 02:53:51;;;;;;;30.10;17.92;;;8.50;99.90;;;;;;4975958;28;20104;-56
2021/09/23 02:56:17;;;;;;;27.20;16.67;;;8.50;99.90;;;;;;4976773;28;20019;-56
2021/09/23 02:58:45;;;;;;;25.75;15.35;;;8.50;99.90;;;;;;4976987;28;20046;-58
2021/09/23 03:01:12;;;;;;;26.75;15.65;;;8.40;99.90;;;;;;4959695;28;20125;-58
2021/09/23 03:03:37;;;;;;;28.67;16.38;;;8.40;99.90;;;;;;4977943;28;20130;-55
2021/09/23 03:06:03;;;;;;;24.35;15.68;;;8.40;99.90;;;;;;4973808;28;20422;-57
2021/09/23 03:08:29;;;;;;;26.13;16.05;;;8.40;99.90;;;;;;4978624;28;20049;-54
2021/09/23 03:10:54;;;;;;;27.73;16.27;;;8.40;99.90;;;;;;4975703;28;20034;-53
2021/09/23 03:13:20;;;;;;;29.70;16.85;;;8.40;99.90;;;;;;4977874;28;20101;-57
2021/09/23 03:15:46;;;;;;;28.45;16.60;;;8.40;99.90;;;;;;4979058;28;20054;-55
2021/09/23 03:18:11;;;;;;;26.73;16.75;;;8.40;99.90;;;;;;4978222;28;20027;-55
2021/09/23 03:20:37;;;;;;;23.45;15.73;;;8.40;99.90;;;;;;4976652;28;20108;-56
2021/09/23 03:23:02;;;;;;;25.58;14.80;;;8.40;99.90;;;;;;4975765;28;20450;-57
2021/09/23 03:25:30;;;;;;;23.42;15.40;;;8.40;99.90;;;;;;4976990;28;20034;-58
2021/09/23 03:27:56;;;;;;;25.83;16.95;;;8.40;99.90;;;;;;4975807;28;20026;-56
2021/09/23 03:30:22;;;;;;;24.17;14.82;;;8.30;99.90;;;;;;4976498;28;20035;-59
2021/09/23 03:32:47;;;;;;;22.17;14.98;;;8.20;99.90;;;;;;4973767;28;20038;-55
2021/09/23 03:35:13;;;;;;;22.63;14.63;;;8.20;99.90;;;;;;4974139;28;20030;-59
2021/09/23 03:37:39;;;;;;;20.00;14.75;;;8.20;99.90;;;;;;4973542;28;20387;-58
2021/09/23 03:40:05;;;;;;;29.17;15.25;;;8.10;99.90;;;;;;4972466;28;20541;-56
2021/09/23 03:42:31;;;;;;;22.88;14.35;;;8.10;99.90;;;;;;4972500;28;20042;-56
2021/09/23 03:44:57;;;;;;;28.85;17.40;;;8.00;99.90;;;;;;4973290;28;20046;-57
2021/09/23 03:47:22;;;;;;;26.33;17.17;;;8.00;99.90;;;;;;4973060;28;20046;-59
2021/09/23 03:49:48;;;;;;;34.13;19.10;;;8.00;99.90;;;;;;4973030;28;20046;-57
2021/09/23 03:52:13;;;;;;;27.05;16.60;;;8.00;99.90;;;;;;4972677;28;20066;-57
2021/09/23 03:54:39;;;;;;;26.33;17.38;;;7.90;99.90;;;;;;4969747;28;20114;-57
2021/09/23 03:57:04;;;;;;;31.25;18.60;;;7.90;99.90;;;;;;4955446;28;20043;-55
2021/09/23 03:59:30;;;;;;;29.63;17.85;;;7.90;99.90;;;;;;4972415;28;20082;-56
2021/09/23 04:01:56;;;;;;;26.20;16.88;;;8.00;99.90;;;;;;4972641;28;20034;-54
2021/09/23 04:04:21;;;;;;;31.55;18.40;;;8.00;99.90;;;;;;4972788;28;20054;-59
2021/09/23 04:06:47;;;;;;;30.70;19.13;;;8.00;99.90;;;;;;4972756;28;20041;-56
2021/09/23 04:09:13;;;;;;;38.83;20.35;;;8.00;99.90;;;;;;4972512;28;20035;-58
2021/09/23 04:11:39;;;;;;;33.72;18.50;;;8.10;99.90;;;;;;4972940;28;20113;-56
2021/09/23 04:14:06;;;;;;;35.28;20.52;;;8.10;99.90;;;;;;4972228;28;20042;-57
2021/09/23 04:16:33;;;;;;;30.67;20.08;;;8.30;99.90;;;;;;4972537;28;20094;-56
2021/09/23 04:19:00;;;;;;;30.20;17.60;;;8.30;99.90;;;;;;4972723;28;20553;-52
2021/09/23 04:21:26;;;;;;;28.17;16.90;;;8.30;99.90;;;;;;4972801;28;20034;-56
2021/09/23 04:23:52;;;;;;;22.30;15.07;;;8.30;99.90;;;;;;4972478;28;20057;-57
2021/09/23 04:26:18;;;;;;;23.45;15.10;;;8.30;99.90;;;;;;4972338;28;20039;-55
2021/09/23 04:28:43;;;;;;;26.27;14.82;;;8.20;99.90;;;;;;4966831;28;20062;-54
2021/09/23 04:31:09;;;;;;;27.13;15.18;;;8.10;99.90;;;;;;4972541;28;20038;-56
2021/09/23 04:33:35;;;;;;;26.63;16.25;;;8.10;99.90;;;;;;4972025;28;20033;-58
2021/09/23 04:36:00;;;;;;;26.05;15.60;;;8.00;99.90;;;;;;4969693;28;20558;-57
2021/09/23 04:38:26;;;;;;;25.92;15.60;;;8.00;99.90;;;;;;4970790;28;20046;-56
2021/09/23 04:40:53;;;;;;;29.83;16.83;;;8.00;99.90;;;;;;4972056;28;20113;-56
2021/09/23 04:43:19;;;;;;;26.30;16.63;;;7.90;99.90;;;;;;4971903;28;20053;-57
2021/09/23 04:45:45;;;;;;;30.95;17.55;;;8.00;99.90;;;;;;4939639;28;20125;-54
2021/09/23 04:48:10;;;;;;;32.08;18.75;;;8.00;99.90;;;;;;4972250;28;20084;-54
2021/09/23 04:50:36;;;;;;;29.05;15.68;;;8.00;99.90;;;;;;4976856;28;20026;-55
2021/09/23 04:53:02;;;;;;;24.40;15.60;;;7.90;99.90;;;;;;4973713;28;20086;-53
2021/09/23 04:55:28;;;;;;;26.40;17.10;;;7.90;99.90;;;;;;4973836;28;20035;-56
2021/09/23 04:57:54;;;;;;;34.80;16.85;;;7.90;99.90;;;;;;4970069;28;20170;-56
2021/09/23 05:00:19;;;;;;;21.90;14.25;;;7.90;99.90;;;;;;4969517;28;20177;-55
2021/09/23 05:02:46;;;;;;;26.30;14.93;;;7.90;99.90;;;;;;4968605;28;20034;-56
2021/09/23 05:05:12;;;;;;;22.58;14.02;;;7.90;99.90;;;;;;4975768;28;20027;-57
2021/09/23 05:07:38;;;;;;;23.50;14.52;;;7.90;99.90;;;;;;4977194;28;20034;-58
2021/09/23 05:10:03;;;;;;;26.95;16.00;;;7.90;99.90;;;;;;4973471;28;20058;-56
2021/09/23 05:12:29;;;;;;;23.08;14.82;;;7.90;99.90;;;;;;4980704;28;20151;-58
2021/09/23 05:14:55;;;;;;;26.83;15.95;;;8.00;99.90;;;;;;4971297;28;20124;-55
2021/09/23 05:17:20;;;;;;;27.15;16.30;;;8.00;99.90;;;;;;4971513;28;20102;-58
2021/09/23 05:19:47;;;;;;;32.00;16.40;;;8.00;99.90;;;;;;4975310;28;20027;-52
2021/09/23 05:22:13;;;;;;;25.48;15.45;;;8.00;99.90;;;;;;4971474;28;20093;-58
2021/09/23 05:24:38;;;;;;;24.92;14.77;;;8.10;99.90;;;;;;4971586;28;20039;-56
2021/09/23 05:27:04;;;;;;;19.52;12.65;;;8.10;99.90;;;;;;4970594;28;20034;-55
2021/09/23 05:29:30;;;;;;;22.08;13.23;;;8.10;99.90;;;;;;4971795;28;20030;-55
2021/09/23 05:31:56;;;;;;;16.05;11.27;;;8.10;99.90;;;;;;4971171;28;20118;-56
2021/09/23 05:34:22;;;;;;;20.42;12.15;;;8.10;99.90;;;;;;4972464;28;20085;-57
2021/09/23 05:36:47;;;;;;;18.88;12.30;;;8.10;99.90;;;;;;4971221;28;20030;-58
2021/09/23 05:39:13;;;;;;;17.48;11.93;;;8.00;99.90;;;;;;4971161;28;20031;-55
2021/09/23 05:41:41;;;;;;;20.25;12.75;;;7.90;99.90;;;;;;4971345;28;20471;-57
2021/09/23 05:44:10;;;;;;;19.70;11.90;;;7.90;99.90;;;;;;4966670;28;20043;-53
2021/09/23 05:46:36;;;;;;;19.00;12.35;;;8.00;99.90;;;;;;4967246;28;20522;-57
2021/09/23 05:49:02;;;;;;;16.75;10.95;;;8.00;99.90;;;;;;4970991;28;20114;-55
2021/09/23 05:51:28;;;;;;;16.30;11.85;;;8.00;99.90;;;;;;4971327;28;20387;-57
2021/09/23 05:53:54;;;;;;;16.73;10.88;;;8.00;99.90;;;;;;4970014;28;20101;-56
2021/09/23 05:56:20;;;;;;;16.33;10.63;;;8.10;99.90;;;;;;4970428;28;20031;-57
2021/09/23 05:58:45;;;;;;;15.82;10.15;;;8.10;99.90;;;;;;4970133;28;20114;-55
2021/09/23 06:01:14;;;;;;;19.65;12.35;;;8.10;99.90;;;;;;4971056;28;20055;-57
2021/09/23 06:03:39;;;;;;;18.08;10.23;;;8.10;99.90;;;;;;4953173;28;20034;-55
2021/09/23 06:06:05;;;;;;;16.42;10.63;;;8.10;99.90;;;;;;4971373;28;20066;-55
2021/09/23 06:08:31;;;;;;;15.60;10.52;;;8.10;99.90;;;;;;4967561;28;20039;-53
2021/09/23 06:10:56;;;;;;;19.40;11.98;;;8.10;99.90;;;;;;4972155;28;20109;-56
2021/09/23 06:13:22;;;;;;;19.25;12.82;;;8.20;99.90;;;;;;4970743;28;20042;-57
2021/09/23 06:15:50;;;;;;;18.58;11.45;;;8.30;99.90;;;;;;4956148;28;20043;-58
2021/09/23 06:18:16;;;;;;;18.95;11.63;;;8.30;99.90;;;;;;4971600;28;20070;-59
2021/09/23 06:20:43;;;;;;;16.67;11.23;;;8.40;99.90;;;;;;4959557;28;20180;-59
2021/09/23 06:23:09;;;;;;;20.77;13.43;;;8.60;99.90;;;;;;4940479;28;20125;-58
2021/09/23 06:25:37;;;;;;;17.95;11.88;;;8.70;99.90;;;;;;4969674;28;20490;-60
2021/09/23 06:28:04;;;;;;;15.40;11.55;;;8.80;99.90;;;;;;4972307;28;20413;-56
2021/09/23 06:30:29;;;;;;;18.08;11.68;;;8.90;99.90;;;;;;4971385;28;20170;-58
2021/09/23 06:32:55;;;;;;;15.75;10.57;;;9.00;99.90;;;;;;4970452;28;20101;-58
2021/09/23 06:35:21;;;;;;;15.13;10.48;;;9.20;99.90;;;;;;4971620;28;20023;-57
2021/09/23 06:37:47;;;;;;;12.05;8.90;;;9.50;99.90;;;;;;4968374;28;20022;-59
2021/09/23 06:40:13;;;;;;;11.77;7.70;;;10.10;99.90;;;;;;4969536;28;20113;-59
2021/09/23 06:42:40;;;;;;;9.68;6.72;;;10.90;99.90;;;;;;4972414;28;20038;-58
2021/09/23 06:45:06;;;;;;;8.02;5.97;;;11.90;99.90;;;;;;4971950;28;20031;-60
2021/09/23 06:47:32;;;;;;;8.48;6.30;;;12.80;99.90;;;;;;4971607;28;20434;-60
2021/09/23 06:49:58;;;;;;;11.18;7.03;;;13.60;99.90;;;;;;4971726;28;20038;-57
2021/09/23 06:52:23;;;;;;;9.40;6.40;;;14.20;99.90;;;;;;4965198;28;20466;-58
2021/09/23 06:54:49;;;;;;;9.48;6.53;;;15.00;99.90;;;;;;4970250;28;20031;-58
2021/09/23 06:57:15;;;;;;;9.07;5.55;;;16.00;99.90;;;;;;4975500;28;20593;-61
2021/09/23 06:59:40;;;;;;;8.27;4.60;;;16.70;99.90;;;;;;4969148;28;20027;-57
2021/09/23 07:02:06;;;;;;;8.70;4.57;;;17.80;99.90;;;;;;4970088;28;20042;-58
2021/09/23 07:04:32;;;;;;;7.22;4.28;;;18.40;99.90;;;;;;4971391;28;20085;-57
2021/09/23 07:06:58;;;;;;;5.70;4.40;;;19.20;99.30;;;;;;4976833;28;20041;-60
2021/09/23 07:09:24;;;;;;;5.57;4.18;;;19.30;98.20;;;;;;4975431;28;20030;-59
2021/09/23 07:11:49;;;;;;;8.90;4.57;;;18.90;97.90;;;;;;4962245;28;20553;-59
2021/09/23 07:14:15;;;;;;;6.45;4.47;;;18.00;98.20;;;;;;4973781;28;20434;-60
2021/09/23 07:16:41;;;;;;;5.85;4.55;;;16.90;99.30;;;;;;4947791;28;20494;-60
2021/09/23 07:19:07;;;;;;;10.40;4.90;;;16.00;99.90;;;;;;4982976;28;20026;-56
2021/09/23 07:21:33;;;;;;;9.85;5.72;;;15.40;99.90;;;;;;4970487;28;20034;-58
2021/09/23 07:23:58;;;;;;;6.90;4.75;;;14.80;99.90;;;;;;4974312;28;20520;-57
2021/09/23 07:26:25;;;;;;;7.97;5.28;;;14.30;99.90;;;;;;4977686;28;20023;-59
2021/09/23 07:28:50;;;;;;;7.07;5.20;;;14.00;99.90;;;;;;4974537;28;20151;-59
2021/09/23 07:31:16;;;;;;;7.70;6.05;;;13.80;99.90;;;;;;4975698;28;20059;-59
2021/09/23 07:33:44;;;;;;;10.43;6.03;;;13.80;99.90;;;;;;4957894;28;20521;-58
2021/09/23 07:36:12;;;;;;;7.63;5.35;;;13.90;99.90;;;;;;4964153;28;20029;-58
2021/09/23 07:38:38;;;;;;;7.65;5.70;;;14.00;99.90;;;;;;4956669;28;20037;-58
2021/09/23 07:41:04;;;;;;;8.27;5.95;;;14.00;99.90;;;;;;4985569;28;20031;-56
2021/09/23 07:43:30;;;;;;;7.70;6.15;;;14.00;99.90;;;;;;4955799;28;20402;-58
2021/09/23 07:45:56;;;;;;;12.57;6.55;;;14.10;99.90;;;;;;4972229;28;20520;-56
2021/09/23 07:48:22;;;;;;;7.97;6.07;;;14.00;99.90;;;;;;4972059;28;20145;-57
2021/09/23 07:50:49;;;;;;;11.80;6.07;;;14.10;99.90;;;;;;4955827;28;20117;-56
2021/09/23 07:53:15;;;;;;;7.05;5.43;;;14.30;99.90;;;;;;4963120;28;20402;-59
2021/09/23 07:55:41;;;;;;;7.95;5.97;;;14.40;99.90;;;;;;4972731;28;20109;-57
2021/09/23 07:58:06;;;;;;;12.10;6.60;;;14.60;99.90;;;;;;4944664;29;20102;-55
2021/09/23 08:00:32;;;;;;;10.75;5.55;;;14.90;99.90;;;;;;4971199;28;20047;-61
2021/09/23 08:02:58;;;;;;;9.50;5.45;;;15.20;99.90;;;;;;4961947;28;20035;-58
2021/09/23 08:05:28;;;;;;;6.68;5.32;;;15.70;99.90;;;;;;4971442;28;20023;-59
2021/09/23 08:07:55;;;;;;;6.85;4.95;;;16.10;99.90;;;;;;4957091;28;20027;-57
2021/09/23 08:10:21;;;;;;;7.97;4.97;;;16.80;99.90;;;;;;4970592;28;20028;-60
2021/09/23 08:12:47;;;;;;;8.57;3.92;;;17.30;99.90;;;;;;4972906;28;20089;-54
2021/09/23 08:15:13;;;;;;;5.03;3.85;;;17.90;99.90;;;;;;4947260;28;20056;-60
2021/09/23 08:17:39;;;;;;;5.93;3.75;;;18.90;99.90;;;;;;4972439;28;20121;-60
2021/09/23 08:20:06;;;;;;;5.53;3.95;;;19.30;99.90;;;;;;4969010;28;20513;-60
2021/09/23 08:22:32;;;;;;;7.30;3.65;;;19.80;99.80;;;;;;4972709;28;20053;-60
2021/09/23 08:24:58;;;;;;;6.80;3.60;;;20.00;98.90;;;;;;4968188;28;20027;-57
2021/09/23 08:27:24;;;;;;;6.22;3.92;;;20.20;98.60;;;;;;4972125;28;20029;-59
2021/09/23 08:29:49;;;;;;;8.50;4.15;;;20.20;97.70;;;;;;4968662;28;20031;-55
2021/09/23 08:32:19;;;;;;;8.25;3.88;;;20.60;97.20;;;;;;4972548;28;20030;-59
2021/09/23 08:34:50;;;;;;;6.28;4.38;;;20.60;97.10;;;;;;4964027;28;20507;-58
2021/09/23 08:37:16;;;;;;;7.55;4.45;;;20.90;96.40;;;;;;4971340;28;20379;-58
2021/09/23 08:39:42;;;;;;;6.20;4.70;;;20.70;96.50;;;;;;4968890;28;20498;-60
2021/09/23 08:42:09;;;;;;;7.15;4.30;;;20.60;96.40;;;;;;4975993;28;20030;-59
2021/09/23 08:44:36;;;;;;;8.93;4.20;;;20.70;96.00;;;;;;4972951;28;20440;-58
2021/09/23 08:47:03;;;;;;;8.73;3.85;;;20.80;96.30;;;;;;4972146;28;20022;-53
2021/09/23 08:49:28;;;;;;;8.20;3.35;;;20.50;96.20;;;;;;4972863;28;20034;-59
2021/09/23 08:51:54;;;;;;;4.82;3.22;;;21.00;97.00;;;;;;4954928;28;20033;-59
2021/09/23 08:54:21;;;;;;;8.85;3.25;;;21.30;95.50;;;;;;4972460;28;20433;-59
2021/09/23 08:56:48;;;;;;;6.22;3.42;;;20.70;96.30;;;;;;4971763;28;20090;-57
2021/09/23 08:59:14;;;;;;;5.60;3.53;;;20.50;96.40;;;;;;4955577;28;20051;-60
2021/09/23 09:02:18;;;;;;;9.02;2.88;;;20.30;96.20;;;;;;4971699;28;20026;-59
2021/09/23 09:04:51;;;;;;;5.97;3.13;;;19.60;97.60;;;;;;4975786;28;20022;-61
2021/09/23 09:07:26;;;;;;;6.70;3.38;;;19.80;97.70;;;;;;4958115;28;20514;-62
2021/09/23 09:10:11;;;;;;;7.50;2.95;;;19.70;97.80;;;;;;4971585;28;20058;-60
2021/09/23 09:12:41;;;;;;;5.18;2.90;;;20.20;97.80;;;;;;4967845;28;20038;-58
2021/09/23 09:15:07;;;;;;;7.47;4.15;;;20.50;97.40;;;;;;4960408;28;20486;-57
2021/09/23 09:17:37;;;;;;;8.98;3.30;;;20.60;96.80;;;;;;4945109;28;20034;-59
2021/09/23 09:20:08;;;;;;;6.50;3.58;;;20.80;96.10;;;;;;4971289;28;20027;-58
2021/09/23 09:22:35;;;;;;;8.75;3.55;;;20.60;95.30;;;;;;4954363;28;20119;-58
2021/09/23 09:25:11;;;;;;;4.47;2.50;;;20.50;95.10;;;;;;4970512;28;20030;-58
2021/09/23 09:27:50;;;;;;;5.88;3.08;;;21.00;95.70;;;;;;4954094;28;20033;-60
2021/09/23 09:30:17;;;;;;;5.18;2.75;;;21.00;95.00;;;;;;4969347;28;20055;-60
2021/09/23 09:32:49;;;;;;;3.80;3.15;;;21.00;94.60;;;;;;4972269;28;20027;-57
2021/09/23 09:35:23;;;;;;;5.18;2.83;;;20.90;95.50;;;;;;4969848;28;20173;-59
2021/09/23 09:37:54;;;;;;;9.32;4.38;;;21.10;94.60;;;;;;4970406;28;20121;-59
2021/09/23 09:40:23;;;;;;;9.90;2.83;;;21.30;94.20;;;;;;4971291;28;20041;-60
2021/09/23 09:42:51;;;;;;;4.07;2.80;;;21.70;93.60;;;;;;4970688;28;20031;-59
2021/09/23 09:45:21;;;;;;;5.72;2.72;;;21.60;94.40;;;;;;4955489;28;20055;-60
2021/09/23 09:47:53;;;;;;;5.65;2.70;;;22.00;94.20;;;;;;4971125;28;20019;-59
2021/09/23 09:50:34;;;;;;;7.68;3.20;;;22.40;93.70;;;;;;4953858;28;20529;-60
2021/09/23 09:53:03;;;;;;;5.53;2.88;;;22.60;92.70;;;;;;4954155;28;20074;-61
2021/09/23 09:55:39;;;;;;;5.63;2.90;;;22.40;92.30;;;;;;4965361;28;20479;-56
2021/09/23 09:58:06;;;;;;;9.40;3.28;;;22.00;93.10;;;;;;4953734;28;20031;-59
2021/09/23 10:00:33;;;;;;;6.28;2.97;;;22.20;93.40;;;;;;4956717;28;20022;-60
2021/09/23 10:03:00;;;;;;;10.93;3.20;;;22.40;93.30;;;;;;4970492;28;20088;-61
2021/09/23 10:05:26;;;;;;;7.63;3.90;;;22.50;92.90;;;;;;4967631;28;20027;-60
2021/09/23 10:07:55;;;;;;;6.38;3.60;;;22.10;92.60;;;;;;4967478;28;20516;-57
2021/09/23 10:10:24;;;;;;;5.63;3.42;;;22.10;92.80;;;;;;4950072;28;20062;-58
2021/09/23 10:12:55;;;;;;;7.88;3.45;;;22.10;92.80;;;;;;4967824;28;20065;-59
2021/09/23 10:15:20;;;;;;;5.15;3.35;;;21.70;93.50;;;;;;4951968;28;20118;-58
2021/09/23 10:17:48;;;;;;;6.28;4.07;;;21.30;94.00;;;;;;4991582;28;20412;-59
2021/09/23 10:20:17;;;;;;;8.35;4.00;;;21.20;94.20;;;;;;4993367;28;20087;-61
2021/09/23 10:22:43;;;;;;;6.07;3.90;;;21.10;94.40;;;;;;4989033;28;20014;-59
2021/09/23 10:25:21;;;;;;;5.90;3.70;;;21.10;94.40;;;;;;4970684;28;20382;-57
2021/09/23 10:27:58;;;;;;;6.28;3.47;;;21.30;94.60;;;;;;4991122;28;20121;-59
2021/09/23 10:30:42;;;;;;;5.97;3.35;;;21.20;95.50;;;;;;4990927;28;20030;-58
2021/09/23 10:33:09;;;;;;;9.55;4.03;;;21.40;96.00;;;;;;5006011;28;20033;-56
2021/09/23 10:35:36;;;;;;;7.03;3.53;;;21.20;94.80;;;;;;4989907;28;20018;-59
2021/09/23 10:38:08;;;;;;;7.20;3.67;;;21.20;95.40;;;;;;4989356;28;20054;-60
2021/09/23 10:40:36;;;;;;;6.03;3.70;;;21.10;94.60;;;;;;4972292;28;20026;-59
2021/09/23 10:43:13;;;;;;;6.85;3.38;;;21.20;94.90;;;;;;4991066;28;20037;-53
2021/09/23 10:45:40;;;;;;;8.07;3.72;;;21.30;94.70;;;;;;4992051;28;20379;-59
2021/09/23 10:48:05;;;;;;;5.47;3.40;;;21.50;94.70;;;;;;4993312;28;20026;-60
2021/09/23 10:50:34;;;;;;;7.28;3.53;;;21.60;94.80;;;;;;4994625;28;20026;-57
2021/09/23 10:53:00;;;;;;;11.40;4.30;;;21.70;94.10;;;;;;4973995;28;20041;-58
2021/09/23 10:55:28;;;;;;;4.88;3.58;;;21.40;94.60;;;;;;4991658;28;20030;-59
2021/09/23 10:57:55;;;;;;;6.47;3.13;;;21.50;94.70;;;;;;4991448;28;20026;-58
2021/09/23 11:00:31;;;;;;;10.65;3.03;;;21.40;93.90;;;;;;4986792;28;20104;-58
2021/09/23 11:02:57;;;;;;;6.72;2.78;;;21.40;94.40;;;;;;4987333;28;20393;-59
2021/09/23 11:05:24;;;;;;;5.90;3.17;;;21.40;94.30;;;;;;4993709;28;20262;-58
2021/09/23 11:07:52;;;;;;;9.45;3.45;;;21.30;93.60;;;;;;4993144;28;20059;-57
2021/09/23 11:10:21;;;;;;;13.23;2.97;;;21.20;93.60;;;;;;4992584;28;20025;-59
2021/09/23 11:12:50;;;;;;;4.68;2.47;;;21.20;93.80;;;;;;4981395;28;20138;-59
2021/09/23 11:15:20;;;;;;;6.22;2.97;;;21.30;93.50;;;;;;4981830;28;20034;-59
2021/09/23 11:17:47;;;;;;;9.00;2.42;;;21.20;93.50;;;;;;4966017;28;20522;-59
2021/09/23 11:20:16;;;;;;;6.63;2.47;;;21.40;93.10;;;;;;4965796;28;20628;-58
2021/09/23 11:22:43;;;;;;;5.57;3.20;;;21.60;93.70;;;;;;4991927;28;20108;-57
2021/09/23 11:25:34;;;;;;;6.75;2.65;;;21.60;93.80;;;;;;4991301;28;20034;-58
2021/09/23 11:28:01;;;;;;;7.78;3.05;;;21.80;92.70;;;;;;4986555;28;20622;-57
2021/09/23 11:30:30;;;;;;;9.48;3.42;;;21.80;92.40;;;;;;4988929;28;20060;-58
2021/09/23 11:32:57;;;;;;;7.32;3.13;;;21.80;93.30;;;;;;4976086;28;20093;-58
2021/09/23 11:35:25;;;;;;;9.43;2.95;;;21.70;93.60;;;;;;4992404;28;20145;-59
2021/09/23 11:37:52;;;;;;;11.27;2.97;;;21.60;93.80;;;;;;4995559;28;20029;-60
2021/09/23 11:40:26;;;;;;;6.18;3.17;;;21.40;93.20;;;;;;4994081;28;20498;-57
2021/09/23 11:42:52;;;;;;;5.50;2.33;;;21.50;93.20;;;;;;4992034;28;20054;-58
2021/09/23 11:45:22;;;;;;;6.30;2.80;;;21.40;93.50;;;;;;4992834;28;20108;-58
2021/09/23 11:48:03;;;;;;;6.97;2.60;;;21.30;94.20;;;;;;4994118;28;20375;-60
2021/09/23 11:50:35;;;;;;;7.47;3.47;;;21.40;93.30;;;;;;4991913;28;20529;-59
2021/09/23 11:53:13;;;;;;;5.38;2.55;;;21.20;93.10;;;;;;4993217;28;20027;-56
2021/09/23 11:55:43;;;;;;;6.78;2.78;;;21.20;93.30;;;;;;4994199;28;20098;-56
2021/09/23 11:58:15;;;;;;;7.30;2.60;;;21.00;93.00;;;;;;4993088;28;20398;-56
2021/09/23 12:00:44;;;;;;;9.30;3.58;;;20.90;93.30;;;;;;4989046;28;20457;-56
2021/09/23 12:03:11;;;;;;;7.20;2.42;;;20.90;93.40;;;;;;4994781;28;20541;-59
2021/09/23 12:05:37;;;;;;;3.65;2.38;;;20.80;93.60;;;;;;4991333;28;20030;-61
2021/09/23 12:08:08;;;;;;;9.82;3.15;;;20.80;93.90;;;;;;4998907;28;20023;-57
2021/09/23 12:10:41;;;;;;;8.82;2.50;;;20.80;93.80;;;;;;4994826;28;20032;-59
2021/09/23 12:13:09;;;;;;;7.47;2.10;;;20.80;93.60;;;;;;4990610;28;20089;-58
2021/09/23 12:15:35;;;;;;;4.03;2.10;;;20.90;93.90;;;;;;4993988;28;20489;-60
2021/09/23 12:18:03;;;;;;;4.85;2.20;;;20.90;93.40;;;;;;4966548;28;20046;-57
2021/09/23 12:20:46;;;;;;;2.97;1.80;;;21.00;94.10;;;;;;4978312;28;20039;-60
2021/09/23 12:23:32;;;;;;;4.25;1.65;;;21.10;92.80;;;;;;4974940;28;20019;-59
2021/09/23 12:26:09;;;;;;;6.45;2.15;;;21.00;92.30;;;;;;4990579;28;20161;-58
2021/09/23 12:28:42;;;;;;;5.07;1.70;;;20.80;92.20;;;;;;4989477;28;20029;-58
2021/09/23 12:31:11;;;;;;;4.72;1.70;;;20.70;92.10;;;;;;4965181;28;20019;-59
2021/09/23 12:33:53;;;;;;;5.32;2.55;;;20.70;91.70;;;;;;4975825;28;20183;-57
2021/09/23 12:36:19;;;;;;;6.82;1.80;;;20.80;91.90;;;;;;4992177;28;20370;-59
2021/09/23 12:38:45;;;;;;;4.82;1.77;;;20.80;92.00;;;;;;4972466;28;20386;-58
2021/09/23 12:41:22;;;;;;;5.65;1.73;;;20.70;91.50;;;;;;4985484;28;20031;-60
2021/09/23 12:43:49;;;;;;;4.50;2.25;;;20.70;91.40;;;;;;4988971;28;20026;-58